Terminal Aerodrome Forecast
Issued by NWS

Home | Current Version | Previous Version | Text Only | Print | Product List | Glossary Off
Versions: 1 2 3 4 5 6 7 8 9 10 11 12 13 14 15 16 17 18 19 20

000
FTUS43 KGRB 261409 AAA
TAFCWA
TAF AMD
KCWA 261409Z 2614/2712 11006KT 3SM -SHRA BR OVC004
     FM261800 21008G14KT P6SM OVC035
     FM270000 30009KT P6SM OVC018
     FM270300 33009KT P6SM -RA OVC007=

USA.gov is the U.S. government's official web portal to all federal, state and local government web resources and services.